createdAt,value
2022-09-15T00:00:09.661Z,-10828.84
2022-09-15T00:02:37.787Z,-10828.84
2022-09-15T00:05:04.684Z,-11084.25
2022-09-15T00:07:31.390Z,-11084.25
2022-09-15T00:09:57.838Z,-11084.25
2022-09-15T00:12:27.702Z,-11084.25
2022-09-15T00:14:54.116Z,-11084.25
2022-09-15T00:17:20.734Z,-11084.25
2022-09-15T00:19:47.170Z,-11084.25
2022-09-15T00:22:13.622Z,-11084.25
2022-09-15T00:24:41.543Z,-11084.25
2022-09-15T00:27:08.351Z,-10828.84
2022-09-15T00:29:35.812Z,-10828.84
2022-09-15T00:32:02.686Z,-10828.84
2022-09-15T00:34:29.030Z,-10828.84
2022-09-15T00:36:55.393Z,-10828.84
2022-09-15T00:39:21.886Z,-10828.84
2022-09-15T00:41:48.301Z,-10828.84
2022-09-15T00:44:33.173Z,-10828.84
2022-09-15T00:47:18.144Z,-10828.84
2022-09-15T00:49:47.277Z,-10573.44
2022-09-15T00:52:24.736Z,-10573.44
2022-09-15T00:55:04.339Z,-10573.44
2022-09-15T00:57:39.796Z,-10573.44
2022-09-15T01:00:11.160Z,-10573.44
2022-09-15T01:02:39.442Z,-10573.44
2022-09-15T01:05:10.696Z,-10573.44
2022-09-15T01:08:20.219Z,-10573.44
2022-09-15T01:10:46.747Z,-10573.44
2022-09-15T01:13:14.871Z,-10573.44
2022-09-15T01:16:09.605Z,-10573.44
2022-09-15T01:19:10.102Z,-10318.00
2022-09-15T01:21:39.529Z,-10318.00
2022-09-15T01:24:15.120Z,-10318.00
2022-09-15T01:26:56.230Z,-10318.00
2022-09-15T01:29:41.610Z,-10318.00
2022-09-15T01:32:45.987Z,-10318.00
2022-09-15T01:35:14.961Z,-10318.00
2022-09-15T01:38:00.419Z,-10318.00
2022-09-15T01:40:32.830Z,-10318.00
2022-09-15T01:43:04.930Z,-10318.00
2022-09-15T01:45:37.541Z,-10318.00
2022-09-15T01:48:08.742Z,-10318.00
2022-09-15T01:50:44.428Z,-10573.44
2022-09-15T01:53:16.748Z,-10573.44
2022-09-15T01:55:50.585Z,-10573.44
2022-09-15T01:58:17.005Z,-10573.44
2022-09-15T02:00:48.392Z,-10828.84
2022-09-15T02:03:21.237Z,-10573.44
2022-09-15T02:06:03.007Z,-10573.44
2022-09-15T02:09:05.699Z,-10573.44
2022-09-15T02:11:35.919Z,-10573.44
2022-09-15T02:14:17.239Z,-10573.44
2022-09-15T02:16:52.383Z,-10573.44
2022-09-15T02:19:38.923Z,-10573.44
2022-09-15T02:22:12.237Z,-10573.44
2022-09-15T02:24:43.929Z,-10573.44
2022-09-15T02:27:18.329Z,-10573.44
2022-09-15T02:29:47.736Z,-10828.84
2022-09-15T02:32:18.009Z,-10828.84
2022-09-15T02:34:51.302Z,-10828.84
2022-09-15T02:37:21.130Z,-10828.84
2022-09-15T02:39:53.513Z,-10573.44
2022-09-15T02:42:27.778Z,-10573.44
2022-09-15T02:44:55.071Z,-10318.00
2022-09-15T02:47:21.858Z,-10318.00
2022-09-15T02:49:48.403Z,-10318.00
2022-09-15T02:52:14.830Z,-10318.00
2022-09-15T02:54:41.459Z,-10318.00
2022-09-15T02:57:07.896Z,-10318.00
2022-09-15T02:59:52.954Z,-10318.00
2022-09-15T03:02:20.542Z,-10318.00
2022-09-15T03:04:48.153Z,-10318.00
2022-09-15T03:07:15.743Z,-10318.00
2022-09-15T03:09:42.141Z,-10318.00
2022-09-15T03:12:09.318Z,-10318.00
2022-09-15T03:14:35.845Z,-10318.00
2022-09-15T03:17:06.092Z,-10573.44
2022-09-15T03:19:35.345Z,-10828.84
2022-09-15T03:22:04.110Z,-10828.84
2022-09-15T03:24:34.902Z,-10828.84
2022-09-15T03:27:01.324Z,-11084.25
2022-09-15T03:29:27.808Z,-11084.25
2022-09-15T03:31:54.604Z,-11339.66
2022-09-15T03:34:21.334Z,-11339.66
2022-09-15T03:36:47.787Z,-11339.66
2022-09-15T03:39:14.541Z,-11339.66
2022-09-15T03:41:40.992Z,-11339.66
2022-09-15T03:44:07.432Z,-11339.66
2022-09-15T03:46:33.980Z,-11339.66
2022-09-15T03:49:00.330Z,-11339.66
2022-09-15T03:51:27.174Z,-11339.66
2022-09-15T03:53:55.568Z,-11339.66
2022-09-15T03:56:25.714Z,-11339.66
2022-09-15T03:58:52.562Z,-11339.66
2022-09-15T04:01:21.996Z,-11339.66
2022-09-15T04:03:51.361Z,-11339.66
2022-09-15T04:06:20.405Z,-11339.66
2022-09-15T04:08:48.565Z,-11339.66
2022-09-15T04:11:15.891Z,-11339.66
2022-09-15T04:13:43.290Z,-11339.66
2022-09-15T04:16:13.508Z,-11339.66
2022-09-15T04:18:40.249Z,-11595.00
2022-09-15T04:21:10.748Z,-11339.66
2022-09-15T04:23:37.918Z,-11339.66
2022-09-15T04:26:07.662Z,-11339.66
2022-09-15T04:28:36.987Z,-11339.66
2022-09-15T04:31:06.897Z,-11339.66
2022-09-15T04:33:34.847Z,-11339.66
2022-09-15T04:36:06.993Z,-11339.66
2022-09-15T04:38:35.577Z,-11339.66
2022-09-15T04:41:02.504Z,-11595.00
2022-09-15T04:43:29.155Z,-11595.00
2022-09-15T04:45:56.105Z,-11595.00
2022-09-15T04:48:24.571Z,-11339.66
2022-09-15T04:50:51.637Z,-11339.66
2022-09-15T04:53:18.986Z,-11339.66
2022-09-15T04:55:45.933Z,-11339.66
2022-09-15T04:58:13.042Z,-11084.25
2022-09-15T05:00:44.082Z,-11084.25
2022-09-15T05:03:11.847Z,-11084.25
2022-09-15T05:05:39.339Z,-11084.25
2022-09-15T05:08:08.971Z,-11084.25
2022-09-15T05:10:35.407Z,-11084.25
2022-09-15T05:13:04.803Z,-11084.25
2022-09-15T05:15:31.393Z,-11084.25
2022-09-15T05:17:59.209Z,-11084.25
2022-09-15T05:20:25.793Z,-10828.84
2022-09-15T05:22:52.155Z,-10828.84
2022-09-15T05:25:19.164Z,-10828.84
2022-09-15T05:27:47.113Z,-10573.44
2022-09-15T05:30:36.849Z,-10573.44
2022-09-15T05:33:04.638Z,-10573.44
2022-09-15T05:35:31.295Z,-10573.44
2022-09-15T05:37:58.515Z,-10573.44
2022-09-15T05:40:25.338Z,-10573.44
2022-09-15T05:42:51.769Z,-10573.44
2022-09-15T05:45:24.346Z,-10573.44
2022-09-15T05:47:51.075Z,-10573.44
2022-09-15T05:50:17.674Z,-10573.44
2022-09-15T05:52:44.909Z,-10573.44
2022-09-15T05:55:11.790Z,-10573.44
2022-09-15T05:57:38.333Z,-10573.44
2022-09-15T06:00:09.024Z,-10573.44
2022-09-15T06:02:37.181Z,-10573.44
2022-09-15T06:05:04.147Z,-10573.44
2022-09-15T06:07:30.539Z,-10573.44
2022-09-15T06:09:58.332Z,-10573.44
2022-09-15T06:12:27.523Z,-10573.44
2022-09-15T06:14:53.876Z,-10573.44
2022-09-15T06:17:23.569Z,-10573.44
2022-09-15T06:19:50.013Z,-10573.44
2022-09-15T06:22:16.398Z,-10573.44
2022-09-15T06:24:43.387Z,-10573.44
2022-09-15T06:27:11.266Z,-10318.00
2022-09-15T06:29:37.846Z,-10318.00
2022-09-15T06:32:05.530Z,-10318.00
2022-09-15T06:34:33.468Z,-10062.56
2022-09-15T06:36:59.917Z,-10062.56
2022-09-15T06:39:27.276Z,-10062.56
2022-09-15T06:42:02.242Z,-9807.06
2022-09-15T06:44:30.425Z,-9807.06
2022-09-15T06:46:58.484Z,-9551.59
2022-09-15T06:49:25.954Z,-9551.59
2022-09-15T06:51:58.511Z,-9551.59
2022-09-15T06:54:25.360Z,-9807.06
2022-09-15T06:56:52.618Z,-9807.06
2022-09-15T06:59:24.272Z,-9807.06
2022-09-15T07:01:54.726Z,-9296.09
2022-09-15T07:04:23.845Z,-9040.56
2022-09-15T07:06:53.243Z,-8529.47
2022-09-15T07:09:20.241Z,-7762.72
2022-09-15T07:11:47.190Z,-7762.72
2022-09-15T07:14:13.816Z,-7507.09
2022-09-15T07:16:40.258Z,-6740.13
2022-09-15T07:19:07.820Z,-6228.72
2022-09-15T07:21:35.472Z,-5205.72
2022-09-15T07:24:06.824Z,-4949.91
2022-09-15T07:26:35.116Z,-4949.91
2022-09-15T07:29:06.824Z,-4694.09
2022-09-15T07:31:37.042Z,-3670.69
2022-09-15T07:34:07.510Z,-3926.56
2022-09-15T07:36:35.790Z,-2647.00
2022-09-15T07:39:05.790Z,-2391.03
2022-09-15T07:41:36.847Z,-1623.06
2022-09-15T07:44:04.207Z,-1623.06
2022-09-15T07:46:33.806Z,-2902.97
2022-09-15T07:49:03.144Z,-2647.00
2022-09-15T07:51:36.919Z,-2902.97
2022-09-15T07:54:07.374Z,-2391.03
2022-09-15T07:56:34.400Z,-3158.88
2022-09-15T07:59:01.967Z,-598.81
2022-09-15T08:01:28.767Z,938.03
2022-09-15T08:03:55.248Z,2731.81
2022-09-15T08:06:26.686Z,3757.19
2022-09-15T08:09:00.647Z,4782.84
2022-09-15T08:11:28.471Z,8631.50
2022-09-15T08:13:54.905Z,8888.22
2022-09-15T08:16:25.518Z,7861.47
2022-09-15T08:18:53.980Z,8888.22
2022-09-15T08:21:21.979Z,9401.69
2022-09-15T08:23:57.824Z,10685.69
2022-09-15T08:26:25.398Z,9658.44
2022-09-15T08:28:53.994Z,10428.84
2022-09-15T08:31:20.736Z,9658.44
2022-09-15T08:33:53.290Z,11713.16
2022-09-15T08:36:20.479Z,10428.84
2022-09-15T08:38:47.082Z,11713.16
2022-09-15T08:41:50.866Z,10428.84
2022-09-15T08:44:37.440Z,10685.69
2022-09-15T08:47:18.581Z,12997.94
2022-09-15T08:49:51.842Z,11970.09
2022-09-15T08:52:34.359Z,11970.09
2022-09-15T08:55:13.397Z,12997.94
2022-09-15T08:57:42.817Z,16854.75
2022-09-15T09:00:16.751Z,16854.75
2022-09-15T09:03:05.894Z,17112.00
2022-09-15T09:05:55.050Z,21230.44
2022-09-15T09:09:00.181Z,22775.97
2022-09-15T09:12:21.144Z,19685.50
2022-09-15T09:15:15.271Z,23291.28
2022-09-15T09:18:13.356Z,24529.53
2022-09-15T09:20:55.585Z,29546.94
2022-09-15T09:23:28.313Z,27962.44
2022-09-15T09:25:58.749Z,29292.88
2022-09-15T09:28:39.468Z,31485.09
2022-09-15T09:31:15.561Z,29385.63
2022-09-15T09:33:48.807Z,28325.22
2022-09-15T09:36:16.155Z,30809.34
2022-09-15T09:38:46.767Z,31033.22
2022-09-15T09:41:17.089Z,32651.25
2022-09-15T09:43:48.556Z,33402.00
2022-09-15T09:46:20.541Z,33133.56
2022-09-15T09:48:53.063Z,31569.81
2022-09-15T09:51:32.002Z,27472.69
2022-09-15T09:54:18.620Z,29673.97
2022-09-15T09:56:47.348Z,30470.50
2022-09-15T09:59:34.956Z,33105.31
2022-09-15T10:02:23.123Z,33258.69
2022-09-15T10:04:51.723Z,32685.56
2022-09-15T10:07:23.537Z,34752.47
2022-09-15T10:10:00.094Z,33930.81
2022-09-15T10:12:39.939Z,33573.56
2022-09-15T10:15:20.509Z,35566.19
2022-09-15T10:17:49.593Z,35964.03
2022-09-15T10:20:37.626Z,35041.19
2022-09-15T10:23:07.144Z,33850.09
2022-09-15T10:28:27.216Z,32433.34
2022-09-15T10:31:11.699Z,32405.09
2022-09-15T10:33:44.826Z,33442.34
2022-09-15T10:36:20.642Z,33702.72
2022-09-15T10:38:50.045Z,33567.50
2022-09-15T10:41:25.774Z,33260.72
2022-09-15T10:44:04.635Z,29794.94
2022-09-15T10:46:53.547Z,28032.97
2022-09-15T10:49:52.654Z,24064.41
2022-09-15T10:52:19.641Z,19942.97
2022-09-15T10:54:52.139Z,13254.94
2022-09-15T10:57:46.892Z,10172.03
2022-09-15T11:00:23.272Z,6321.84
2022-09-15T11:03:11.003Z,6578.41
2022-09-15T11:06:05.971Z,6065.31
2022-09-15T11:08:56.536Z,5295.78
2022-09-15T11:11:37.990Z,3757.19
2022-09-15T11:14:50.358Z,9658.44
2022-09-15T11:17:54.715Z,11199.38
2022-09-15T11:20:21.053Z,16597.50
2022-09-15T11:23:32.949Z,19170.69
2022-09-15T11:26:07.650Z,20972.91
2022-09-15T11:28:38.619Z,20457.91
2022-09-15T11:31:16.966Z,23548.97
2022-09-15T11:33:59.952Z,28093.44
2022-09-15T11:36:44.590Z,28819.09
2022-09-15T11:39:21.903Z,31787.69
2022-09-15T11:42:17.838Z,31759.44
2022-09-15T11:44:47.324Z,31864.34
2022-09-15T11:47:18.672Z,34124.59
2022-09-15T11:49:55.306Z,37323.47
2022-09-15T11:52:40.825Z,38588.41
2022-09-15T11:55:18.264Z,37978.13
2022-09-15T11:57:53.969Z,38818.81
2022-09-15T12:00:20.945Z,40100.38
2022-09-15T12:03:06.333Z,44232.97
2022-09-15T12:05:45.729Z,57146.06
2022-09-15T12:08:39.709Z,58114.72
2022-09-15T12:11:11.785Z,71513.31
2022-09-15T12:13:41.190Z,62044.59
2022-09-15T12:16:09.305Z,67692.16
2022-09-15T12:19:00.470Z,63862.50
2022-09-15T12:21:46.474Z,47490.72
2022-09-15T12:24:34.090Z,41248.91
2022-09-15T12:27:04.958Z,38378.22
2022-09-15T12:29:41.823Z,38277.19
2022-09-15T12:32:22.142Z,38119.56
2022-09-15T12:35:01.463Z,35974.16
2022-09-15T12:37:45.132Z,35683.34
2022-09-15T12:40:29.817Z,35994.34
2022-09-15T12:43:13.162Z,36351.84
2022-09-15T12:45:42.934Z,34568.75
2022-09-15T12:48:39.348Z,33014.50
2022-09-15T12:51:10.648Z,26384.63
2022-09-15T12:53:52.975Z,19685.50
2022-09-15T12:56:28.173Z,19685.50
2022-09-15T12:58:56.438Z,22260.72
2022-09-15T13:01:25.970Z,29163.84
2022-09-15T13:03:59.549Z,34213.44
2022-09-15T13:06:26.745Z,35224.94
2022-09-15T13:09:02.597Z,38143.81
2022-09-15T13:14:35.975Z,42385.59
2022-09-15T13:17:21.049Z,47235.50
2022-09-15T13:19:52.658Z,49555.28
2022-09-15T13:22:36.315Z,54562.09
2022-09-15T13:25:17.297Z,72053.34
2022-09-15T13:27:53.252Z,88123.34
2022-09-15T13:30:26.763Z,102407.03
2022-09-15T13:35:00.271Z,98728.78
2022-09-15T13:36:22.455Z,97941.03
2022-09-15T13:39:17.918Z,93217.69
2022-09-15T13:41:54.939Z,88954.22
2022-09-15T13:44:43.547Z,99779.38
2022-09-15T13:47:42.617Z,99516.69
2022-09-15T13:50:18.707Z,101881.34
2022-09-15T13:52:56.051Z,98466.19
2022-09-15T13:55:28.471Z,98991.41
2022-09-15T14:00:58.285Z,96890.91
2022-09-15T14:03:45.416Z,85742.19
2022-09-15T14:06:16.276Z,91906.63
2022-09-15T14:08:45.882Z,96365.97
2022-09-15T14:11:16.403Z,96628.44
2022-09-15T14:13:50.159Z,96365.97
2022-09-15T14:16:37.675Z,96365.97
2022-09-15T14:19:35.904Z,100304.75
2022-09-15T14:22:18.426Z,97941.03
2022-09-15T14:24:44.846Z,98203.59
2022-09-15T14:27:13.336Z,97153.44
2022-09-15T14:29:41.549Z,97678.47
2022-09-15T14:32:15.309Z,85357.72
2022-09-15T14:34:43.575Z,72030.94
2022-09-15T14:37:38.528Z,69683.75
2022-09-15T14:40:19.596Z,60829.03
2022-09-15T14:42:46.993Z,63044.94
2022-09-15T14:48:17.173Z,66556.31
2022-09-15T14:50:46.349Z,66267.31
2022-09-15T14:53:19.338Z,70466.00
2022-09-15T14:56:07.873Z,74640.53
2022-09-15T14:59:01.076Z,79864.84
2022-09-15T15:01:33.740Z,79080.78
2022-09-15T15:04:22.847Z,84572.56
2022-09-15T15:06:55.407Z,84049.22
2022-09-15T15:09:32.428Z,84310.88
2022-09-15T15:12:06.719Z,83525.94
2022-09-15T15:14:35.679Z,85357.72
2022-09-15T15:17:07.502Z,85881.25
2022-09-15T15:19:42.509Z,87714.09
2022-09-15T15:22:11.992Z,85619.47
2022-09-15T15:24:48.252Z,86143.03
2022-09-15T15:27:24.017Z,83264.31
2022-09-15T15:29:51.849Z,86404.84
2022-09-15T15:32:25.564Z,82741.13
2022-09-15T15:34:55.828Z,81433.47
2022-09-15T15:37:32.629Z,89285.78
2022-09-15T15:40:05.528Z,95316.28
2022-09-15T15:42:32.295Z,97941.03
2022-09-15T15:45:03.661Z,92693.22
2022-09-15T15:47:33.348Z,85715.59
2022-09-15T15:50:14.069Z,80277.38
2022-09-15T15:52:43.429Z,69561.53
2022-09-15T15:55:14.779Z,63345.91
2022-09-15T15:57:44.075Z,62963.59
2022-09-15T16:00:22.310Z,57083.13
2022-09-15T16:02:50.343Z,55341.38
2022-09-15T16:05:19.350Z,56709.53
2022-09-15T16:07:47.746Z,54651.38
2022-09-15T16:10:17.968Z,53580.09
2022-09-15T16:12:44.788Z,51876.41
2022-09-15T16:15:13.961Z,48685.94
2022-09-15T16:17:46.001Z,45494.03
2022-09-15T16:20:15.975Z,42943.97
2022-09-15T16:22:43.422Z,41556.31
2022-09-15T16:25:16.946Z,41095.19
2022-09-15T16:27:46.732Z,40613.94
2022-09-15T16:30:13.140Z,40599.78
2022-09-15T16:32:40.827Z,38042.78
2022-09-15T16:35:33.985Z,33575.56
2022-09-15T16:38:00.486Z,34465.78
2022-09-15T16:40:27.368Z,34641.41
2022-09-15T16:42:54.798Z,32378.84
2022-09-15T16:45:28.755Z,31063.47
2022-09-15T16:47:55.549Z,28960.22
2022-09-15T16:50:26.007Z,30172.03
2022-09-15T16:52:53.035Z,32241.66
2022-09-15T16:55:33.831Z,36058.97
2022-09-15T16:58:06.768Z,36497.25
2022-09-15T17:00:37.591Z,33737.03
2022-09-15T17:03:05.714Z,33272.81
2022-09-15T17:05:38.282Z,37634.63
2022-09-15T17:08:07.526Z,39708.19
2022-09-15T17:10:34.983Z,40340.97
2022-09-15T17:13:01.943Z,40490.59
2022-09-15T17:15:35.867Z,40023.56
2022-09-15T17:18:06.276Z,38927.94
2022-09-15T17:20:39.214Z,38768.28
2022-09-15T17:23:27.564Z,38717.75
2022-09-15T17:25:58.537Z,38683.38
2022-09-15T17:28:27.744Z,38511.59
2022-09-15T17:31:02.729Z,37804.34
2022-09-15T17:33:31.816Z,37388.13
2022-09-15T17:36:00.924Z,37048.72
2022-09-15T17:38:27.767Z,36424.53
2022-09-15T17:40:57.986Z,36765.91
2022-09-15T17:43:27.700Z,35867.09
2022-09-15T17:45:55.378Z,35598.50
2022-09-15T17:48:22.808Z,35614.66
2022-09-15T17:50:49.763Z,35844.88
2022-09-15T17:53:22.604Z,35303.69
2022-09-15T17:55:50.641Z,35097.72
2022-09-15T17:58:17.553Z,35142.16
2022-09-15T18:00:46.559Z,26864.13
2022-09-15T18:03:23.108Z,12997.94
2022-09-15T18:05:51.755Z,7091.56
2022-09-15T18:08:18.192Z,2731.81
2022-09-15T18:10:45.899Z,-342.72
2022-09-15T18:13:19.249Z,-2135.06
2022-09-15T18:15:47.206Z,-3926.56
2022-09-15T18:18:20.027Z,-5205.72
2022-09-15T18:20:48.032Z,-5973.00
2022-09-15T18:23:21.267Z,-6740.13
2022-09-15T18:25:48.943Z,-6995.78
2022-09-15T18:28:17.268Z,-7251.44
2022-09-15T18:30:46.511Z,-7251.44
2022-09-15T18:33:16.567Z,-7251.44
2022-09-15T18:35:44.633Z,-8018.31
2022-09-15T18:38:11.482Z,-8273.91
2022-09-15T18:40:43.291Z,-8785.03
2022-09-15T18:43:09.959Z,-9296.09
2022-09-15T18:45:36.513Z,-9551.59
2022-09-15T18:48:10.427Z,-9807.06
2022-09-15T18:50:41.476Z,-10062.56
2022-09-15T18:53:08.861Z,-10318.00
2022-09-15T18:55:35.931Z,-10573.44
2022-09-15T18:58:05.920Z,-10573.44
2022-09-15T19:00:32.890Z,-10573.44
2022-09-15T19:03:04.084Z,-10828.84
2022-09-15T19:05:35.824Z,-10828.84
2022-09-15T19:08:08.311Z,-10828.84
2022-09-15T19:10:34.984Z,-10828.84
2022-09-15T19:13:02.960Z,-10828.84
2022-09-15T19:15:31.351Z,-10828.84
2022-09-15T19:17:57.836Z,-11084.25
2022-09-15T19:20:24.993Z,-11084.25
2022-09-15T19:22:55.291Z,-11339.66
2022-09-15T19:25:23.995Z,-11339.66
2022-09-15T19:27:51.358Z,-11339.66
2022-09-15T19:30:18.297Z,-11339.66
2022-09-15T19:32:45.496Z,-11339.66
2022-09-15T19:35:12.608Z,-11339.66
2022-09-15T19:37:41.016Z,-11339.66
2022-09-15T19:40:11.064Z,-11339.66
2022-09-15T19:42:40.391Z,-11339.66
2022-09-15T19:45:09.633Z,-11595.00
2022-09-15T19:47:36.239Z,-11595.00
2022-09-15T19:50:05.839Z,-11595.00
2022-09-15T19:52:35.861Z,-11595.00
2022-09-15T19:55:08.072Z,-11595.00
2022-09-15T19:57:38.330Z,-11850.38
2022-09-15T20:00:06.514Z,-11850.38
2022-09-15T20:02:36.671Z,-11850.38
2022-09-15T20:05:03.244Z,-11850.38
2022-09-15T20:07:33.891Z,-11850.38
2022-09-15T20:10:00.956Z,-11850.38
2022-09-15T20:12:27.381Z,-11850.38
2022-09-15T20:14:54.817Z,-11850.38
2022-09-15T20:17:21.531Z,-11595.00
2022-09-15T20:19:48.669Z,-11595.00
2022-09-15T20:22:15.399Z,-11595.00
2022-09-15T20:24:42.535Z,-11595.00
2022-09-15T20:27:09.039Z,-11595.00
2022-09-15T20:29:35.800Z,-11595.00
2022-09-15T20:32:03.500Z,-11595.00
2022-09-15T20:34:29.969Z,-11595.00
2022-09-15T20:36:56.399Z,-11595.00
2022-09-15T20:39:22.841Z,-11850.38
2022-09-15T20:41:49.313Z,-11595.00
2022-09-15T20:44:15.922Z,-11850.38
2022-09-15T20:46:42.389Z,-11850.38
2022-09-15T20:49:12.370Z,-11595.00
2022-09-15T20:51:38.856Z,-11850.38
2022-09-15T20:54:05.471Z,-11595.00
2022-09-15T20:56:34.820Z,-11595.00
2022-09-15T20:59:01.406Z,-11595.00
2022-09-15T21:01:40.044Z,-11595.00
2022-09-15T21:04:08.787Z,-11595.00
2022-09-15T21:06:35.999Z,-11595.00
2022-09-15T21:09:03.685Z,-11595.00
2022-09-15T21:11:30.453Z,-11595.00
2022-09-15T21:14:00.733Z,-11595.00
2022-09-15T21:16:28.925Z,-11850.38
2022-09-15T21:18:58.557Z,-11595.00
2022-09-15T21:21:27.665Z,-11850.38
2022-09-15T21:24:01.981Z,-11850.38
2022-09-15T21:26:58.217Z,-11850.38
2022-09-15T21:29:24.799Z,-11850.38
2022-09-15T21:31:51.641Z,-11850.38
2022-09-15T21:34:18.489Z,-11850.38
2022-09-15T21:36:45.965Z,-11850.38
2022-09-15T21:39:12.630Z,-11850.38
2022-09-15T21:41:40.190Z,-11850.38
2022-09-15T21:44:06.867Z,-11850.38
2022-09-15T21:46:33.316Z,-11850.38
2022-09-15T21:49:00.125Z,-11850.38
2022-09-15T21:51:28.429Z,-11850.38
2022-09-15T21:53:59.694Z,-11850.38
2022-09-15T21:56:27.656Z,-11850.38
2022-09-15T21:58:54.559Z,-11850.38
2022-09-15T22:01:24.028Z,-11850.38
2022-09-15T22:03:52.883Z,-11850.38
2022-09-15T22:06:21.370Z,-11850.38
2022-09-15T22:08:48.221Z,-11850.38
2022-09-15T22:11:14.887Z,-11850.38
2022-09-15T22:13:43.488Z,-11850.38
2022-09-15T22:16:18.901Z,-11850.38
2022-09-15T22:18:45.795Z,-11850.38
2022-09-15T22:21:17.633Z,-11850.38
2022-09-15T22:23:45.491Z,-11850.38
2022-09-15T22:26:17.879Z,-11595.00
2022-09-15T22:28:44.727Z,-11850.38
2022-09-15T22:31:12.920Z,-11850.38
2022-09-15T22:33:41.172Z,-11850.38
2022-09-15T22:36:29.245Z,-11850.38
2022-09-15T22:38:56.370Z,-11850.38
2022-09-15T22:41:25.753Z,-11850.38
2022-09-15T22:43:52.362Z,-11595.00
2022-09-15T22:46:22.685Z,-11595.00
2022-09-15T22:48:49.060Z,-11595.00
2022-09-15T22:51:15.603Z,-11595.00
2022-09-15T22:53:42.359Z,-11595.00
2022-09-15T22:56:14.021Z,-11595.00
2022-09-15T22:58:43.790Z,-11595.00
2022-09-15T23:01:13.353Z,-11595.00
2022-09-15T23:03:40.194Z,-11850.38
2022-09-15T23:06:07.862Z,-11850.38
2022-09-15T23:08:35.041Z,-11595.00
2022-09-15T23:11:04.582Z,-11595.00
2022-09-15T23:13:33.190Z,-11595.00
2022-09-15T23:15:59.872Z,-11595.00
2022-09-15T23:18:27.304Z,-11595.00
2022-09-15T23:21:00.803Z,-11339.66
2022-09-15T23:23:28.136Z,-11339.66
2022-09-15T23:25:55.207Z,-11339.66
2022-09-15T23:28:22.676Z,-11339.66
2022-09-15T23:30:56.057Z,-11595.00
2022-09-15T23:33:24.133Z,-11595.00
2022-09-15T23:35:51.169Z,-11595.00
2022-09-15T23:38:19.843Z,-11595.00
2022-09-15T23:40:47.308Z,-11595.00
2022-09-15T23:43:13.950Z,-11595.00
2022-09-15T23:45:43.364Z,-11595.00
2022-09-15T23:48:10.895Z,-11595.00
2022-09-15T23:50:38.989Z,-11850.38
2022-09-15T23:53:05.925Z,-11850.38
2022-09-15T23:55:33.004Z,-11595.00
2022-09-15T23:57:59.473Z,-11595.00
